sensor_id;sensor_type;location;lat;lon;timestamp;P1;durP1;ratioP1;P2;durP2;ratioP2
52692;SDS011;68218;51.012;-1.648;2023-09-19T00:02:19;18.00;;;16.20;;
52692;SDS011;68218;51.012;-1.648;2023-09-19T00:04:45;15.75;;;14.73;;
52692;SDS011;68218;51.012;-1.648;2023-09-19T00:07:10;13.82;;;12.02;;
52692;SDS011;68218;51.012;-1.648;2023-09-19T00:09:35;17.38;;;15.52;;
52692;SDS011;68218;51.012;-1.648;2023-09-19T00:12:05;11.52;;;10.82;;
52692;SDS011;68218;51.012;-1.648;2023-09-19T00:14:31;12.85;;;11.93;;
52692;SDS011;68218;51.012;-1.648;2023-09-19T00:17:00;14.55;;;11.73;;
52692;SDS011;68218;51.012;-1.648;2023-09-19T00:19:30;17.67;;;16.17;;
52692;SDS011;68218;51.012;-1.648;2023-09-19T00:21:57;13.60;;;12.45;;
52692;SDS011;68218;51.012;-1.648;2023-09-19T00:24:23;32.90;;;13.98;;
52692;SDS011;68218;51.012;-1.648;2023-09-19T00:26:48;13.85;;;12.65;;
52692;SDS011;68218;51.012;-1.648;2023-09-19T00:29:14;15.07;;;14.02;;
52692;SDS011;68218;51.012;-1.648;2023-09-19T00:31:44;16.67;;;15.35;;
52692;SDS011;68218;51.012;-1.648;2023-09-19T00:34:09;11.85;;;11.05;;
52692;SDS011;68218;51.012;-1.648;2023-09-19T00:36:36;14.18;;;12.65;;
52692;SDS011;68218;51.012;-1.648;2023-09-19T00:39:03;13.18;;;12.02;;
52692;SDS011;68218;51.012;-1.648;2023-09-19T00:41:30;16.13;;;15.02;;
52692;SDS011;68218;51.012;-1.648;2023-09-19T00:44:01;16.40;;;11.15;;
52692;SDS011;68218;51.012;-1.648;2023-09-19T00:46:27;13.68;;;12.40;;
52692;SDS011;68218;51.012;-1.648;2023-09-19T00:48:53;12.95;;;11.75;;
52692;SDS011;68218;51.012;-1.648;2023-09-19T00:51:19;39.92;;;15.20;;
52692;SDS011;68218;51.012;-1.648;2023-09-19T00:53:47;16.65;;;15.65;;
52692;SDS011;68218;51.012;-1.648;2023-09-19T00:56:13;12.90;;;11.82;;
52692;SDS011;68218;51.012;-1.648;2023-09-19T00:58:43;12.80;;;11.57;;
52692;SDS011;68218;51.012;-1.648;2023-09-19T01:01:09;13.27;;;11.15;;
52692;SDS011;68218;51.012;-1.648;2023-09-19T01:03:36;13.18;;;12.07;;
52692;SDS011;68218;51.012;-1.648;2023-09-19T01:06:02;12.52;;;11.60;;
52692;SDS011;68218;51.012;-1.648;2023-09-19T01:08:28;12.20;;;11.38;;
52692;SDS011;68218;51.012;-1.648;2023-09-19T01:11:04;12.75;;;11.77;;
52692;SDS011;68218;51.012;-1.648;2023-09-19T01:13:56;12.15;;;11.35;;
52692;SDS011;68218;51.012;-1.648;2023-09-19T01:16:31;18.20;;;16.73;;
52692;SDS011;68218;51.012;-1.648;2023-09-19T01:21:49;13.32;;;12.15;;
52692;SDS011;68218;51.012;-1.648;2023-09-19T01:30:14;12.40;;;11.60;;
52692;SDS011;68218;51.012;-1.648;2023-09-19T01:32:42;15.20;;;13.77;;
52692;SDS011;68218;51.012;-1.648;2023-09-19T01:35:09;15.48;;;14.38;;
52692;SDS011;68218;51.012;-1.648;2023-09-19T01:37:37;16.48;;;15.27;;
52692;SDS011;68218;51.012;-1.648;2023-09-19T01:40:07;16.23;;;15.23;;
52692;SDS011;68218;51.012;-1.648;2023-09-19T01:42:45;12.50;;;11.63;;
52692;SDS011;68218;51.012;-1.648;2023-09-19T01:45:50;12.35;;;11.50;;
52692;SDS011;68218;51.012;-1.648;2023-09-19T01:51:36;15.90;;;14.48;;
52692;SDS011;68218;51.012;-1.648;2023-09-19T01:54:11;16.85;;;11.95;;
52692;SDS011;68218;51.012;-1.648;2023-09-19T01:56:52;13.05;;;11.95;;
52692;SDS011;68218;51.012;-1.648;2023-09-19T01:59:28;13.15;;;12.05;;
52692;SDS011;68218;51.012;-1.648;2023-09-19T02:01:58;15.75;;;14.35;;
52692;SDS011;68218;51.012;-1.648;2023-09-19T02:04:25;13.15;;;12.15;;
52692;SDS011;68218;51.012;-1.648;2023-09-19T02:06:52;15.98;;;14.88;;
52692;SDS011;68218;51.012;-1.648;2023-09-19T02:09:18;12.93;;;12.02;;
52692;SDS011;68218;51.012;-1.648;2023-09-19T02:11:43;13.25;;;12.25;;
52692;SDS011;68218;51.012;-1.648;2023-09-19T02:14:09;15.70;;;14.50;;
52692;SDS011;68218;51.012;-1.648;2023-09-19T02:16:34;12.65;;;11.85;;
52692;SDS011;68218;51.012;-1.648;2023-09-19T02:19:00;12.20;;;11.40;;
52692;SDS011;68218;51.012;-1.648;2023-09-19T02:21:26;15.73;;;14.57;;
52692;SDS011;68218;51.012;-1.648;2023-09-19T02:23:55;12.73;;;11.93;;
52692;SDS011;68218;51.012;-1.648;2023-09-19T02:26:21;15.45;;;14.45;;
52692;SDS011;68218;51.012;-1.648;2023-09-19T02:28:47;12.85;;;11.85;;
52692;SDS011;68218;51.012;-1.648;2023-09-19T02:31:12;13.20;;;12.30;;
52692;SDS011;68218;51.012;-1.648;2023-09-19T02:33:37;14.38;;;12.25;;
52692;SDS011;68218;51.012;-1.648;2023-09-19T02:36:03;18.45;;;15.48;;
52692;SDS011;68218;51.012;-1.648;2023-09-19T02:38:29;12.68;;;11.88;;
52692;SDS011;68218;51.012;-1.648;2023-09-19T02:40:55;19.52;;;12.35;;
52692;SDS011;68218;51.012;-1.648;2023-09-19T02:43:20;16.60;;;15.38;;
52692;SDS011;68218;51.012;-1.648;2023-09-19T02:45:47;13.43;;;12.48;;
52692;SDS011;68218;51.012;-1.648;2023-09-19T02:48:14;16.80;;;15.50;;
52692;SDS011;68218;51.012;-1.648;2023-09-19T02:50:40;17.77;;;16.05;;
52692;SDS011;68218;51.012;-1.648;2023-09-19T02:53:06;16.83;;;12.10;;
52692;SDS011;68218;51.012;-1.648;2023-09-19T02:55:32;18.33;;;12.02;;
52692;SDS011;68218;51.012;-1.648;2023-09-19T02:57:57;13.77;;;12.48;;
52692;SDS011;68218;51.012;-1.648;2023-09-19T03:00:23;13.02;;;12.00;;
52692;SDS011;68218;51.012;-1.648;2023-09-19T03:02:50;16.27;;;15.07;;
52692;SDS011;68218;51.012;-1.648;2023-09-19T03:05:18;16.88;;;15.77;;
52692;SDS011;68218;51.012;-1.648;2023-09-19T03:07:44;13.60;;;12.27;;
52692;SDS011;68218;51.012;-1.648;2023-09-19T03:10:12;13.40;;;12.40;;
52692;SDS011;68218;51.012;-1.648;2023-09-19T03:12:37;16.67;;;15.57;;
52692;SDS011;68218;51.012;-1.648;2023-09-19T03:15:05;14.07;;;11.52;;
52692;SDS011;68218;51.012;-1.648;2023-09-19T03:17:31;14.25;;;12.85;;
52692;SDS011;68218;51.012;-1.648;2023-09-19T03:19:57;13.35;;;12.23;;
52692;SDS011;68218;51.012;-1.648;2023-09-19T03:22:23;12.60;;;11.80;;
52692;SDS011;68218;51.012;-1.648;2023-09-19T03:24:49;13.05;;;12.10;;
52692;SDS011;68218;51.012;-1.648;2023-09-19T03:27:15;14.32;;;13.43;;
52692;SDS011;68218;51.012;-1.648;2023-09-19T03:29:41;12.00;;;11.27;;
52692;SDS011;68218;51.012;-1.648;2023-09-19T03:32:07;12.18;;;11.38;;
52692;SDS011;68218;51.012;-1.648;2023-09-19T03:34:35;14.88;;;13.98;;
52692;SDS011;68218;51.012;-1.648;2023-09-19T03:37:02;16.00;;;14.93;;
52692;SDS011;68218;51.012;-1.648;2023-09-19T03:39:28;13.65;;;12.65;;
52692;SDS011;68218;51.012;-1.648;2023-09-19T03:41:54;16.45;;;14.90;;
52692;SDS011;68218;51.012;-1.648;2023-09-19T03:44:19;12.95;;;11.95;;
52692;SDS011;68218;51.012;-1.648;2023-09-19T03:46:44;13.93;;;12.52;;
52692;SDS011;68218;51.012;-1.648;2023-09-19T03:49:10;18.63;;;16.98;;
52692;SDS011;68218;51.012;-1.648;2023-09-19T03:51:35;13.52;;;12.13;;
52692;SDS011;68218;51.012;-1.648;2023-09-19T03:54:02;12.73;;;11.82;;
52692;SDS011;68218;51.012;-1.648;2023-09-19T03:56:29;15.68;;;14.68;;
52692;SDS011;68218;51.012;-1.648;2023-09-19T03:58:54;13.07;;;11.95;;
52692;SDS011;68218;51.012;-1.648;2023-09-19T04:01:20;12.82;;;11.93;;
52692;SDS011;68218;51.012;-1.648;2023-09-19T04:03:45;16.80;;;15.60;;
52692;SDS011;68218;51.012;-1.648;2023-09-19T04:06:15;13.82;;;12.82;;
52692;SDS011;68218;51.012;-1.648;2023-09-19T04:08:41;13.40;;;12.18;;
52692;SDS011;68218;51.012;-1.648;2023-09-19T04:11:07;17.08;;;15.13;;
52692;SDS011;68218;51.012;-1.648;2023-09-19T04:13:32;12.63;;;11.82;;
52692;SDS011;68218;51.012;-1.648;2023-09-19T04:15:58;14.93;;;13.60;;
52692;SDS011;68218;51.012;-1.648;2023-09-19T04:18:23;18.00;;;16.13;;
52692;SDS011;68218;51.012;-1.648;2023-09-19T04:20:52;14.50;;;13.60;;
52692;SDS011;68218;51.012;-1.648;2023-09-19T04:23:18;15.05;;;13.98;;
52692;SDS011;68218;51.012;-1.648;2023-09-19T04:25:46;15.43;;;14.43;;
52692;SDS011;68218;51.012;-1.648;2023-09-19T04:28:13;18.63;;;17.52;;
52692;SDS011;68218;51.012;-1.648;2023-09-19T04:30:39;14.27;;;13.38;;
52692;SDS011;68218;51.012;-1.648;2023-09-19T04:33:05;18.38;;;14.32;;
52692;SDS011;68218;51.012;-1.648;2023-09-19T04:35:31;15.27;;;14.27;;
52692;SDS011;68218;51.012;-1.648;2023-09-19T04:37:57;20.13;;;18.90;;
52692;SDS011;68218;51.012;-1.648;2023-09-19T04:40:22;19.75;;;18.08;;
52692;SDS011;68218;51.012;-1.648;2023-09-19T04:42:55;14.27;;;13.18;;
52692;SDS011;68218;51.012;-1.648;2023-09-19T04:45:24;14.27;;;13.38;;
52692;SDS011;68218;51.012;-1.648;2023-09-19T04:47:51;15.40;;;14.35;;
52692;SDS011;68218;51.012;-1.648;2023-09-19T04:50:17;15.90;;;14.90;;
52692;SDS011;68218;51.012;-1.648;2023-09-19T04:52:43;16.90;;;15.43;;
52692;SDS011;68218;51.012;-1.648;2023-09-19T04:55:13;15.57;;;14.38;;
52692;SDS011;68218;51.012;-1.648;2023-09-19T04:57:45;20.25;;;18.90;;
52692;SDS011;68218;51.012;-1.648;2023-09-19T05:00:16;16.17;;;15.18;;
52692;SDS011;68218;51.012;-1.648;2023-09-19T05:02:44;23.55;;;21.80;;
52692;SDS011;68218;51.012;-1.648;2023-09-19T05:05:11;18.10;;;16.67;;
52692;SDS011;68218;51.012;-1.648;2023-09-19T05:07:41;17.75;;;16.45;;
52692;SDS011;68218;51.012;-1.648;2023-09-19T05:10:07;15.57;;;14.48;;
52692;SDS011;68218;51.012;-1.648;2023-09-19T05:12:36;16.83;;;15.68;;
52692;SDS011;68218;51.012;-1.648;2023-09-19T05:15:02;16.13;;;15.00;;
52692;SDS011;68218;51.012;-1.648;2023-09-19T05:17:29;20.70;;;18.58;;
52692;SDS011;68218;51.012;-1.648;2023-09-19T05:19:55;16.30;;;14.98;;
52692;SDS011;68218;51.012;-1.648;2023-09-19T05:22:20;17.27;;;15.57;;
52692;SDS011;68218;51.012;-1.648;2023-09-19T05:24:46;15.80;;;14.60;;
52692;SDS011;68218;51.012;-1.648;2023-09-19T05:27:14;20.30;;;18.90;;
52692;SDS011;68218;51.012;-1.648;2023-09-19T05:29:42;15.73;;;14.63;;
52692;SDS011;68218;51.012;-1.648;2023-09-19T05:32:09;18.65;;;16.92;;
52692;SDS011;68218;51.012;-1.648;2023-09-19T05:34:35;16.55;;;15.35;;
52692;SDS011;68218;51.012;-1.648;2023-09-19T05:37:01;20.33;;;18.73;;
52692;SDS011;68218;51.012;-1.648;2023-09-19T05:39:27;19.27;;;14.57;;
52692;SDS011;68218;51.012;-1.648;2023-09-19T05:41:52;20.17;;;18.77;;
52692;SDS011;68218;51.012;-1.648;2023-09-19T05:44:17;17.10;;;15.80;;
52692;SDS011;68218;51.012;-1.648;2023-09-19T05:46:43;16.05;;;14.77;;
52692;SDS011;68218;51.012;-1.648;2023-09-19T05:49:10;16.88;;;15.32;;
52692;SDS011;68218;51.012;-1.648;2023-09-19T05:51:35;16.35;;;14.98;;
52692;SDS011;68218;51.012;-1.648;2023-09-19T05:54:01;21.73;;;18.55;;
52692;SDS011;68218;51.012;-1.648;2023-09-19T05:56:26;16.08;;;14.60;;
52692;SDS011;68218;51.012;-1.648;2023-09-19T05:58:52;16.30;;;14.98;;
52692;SDS011;68218;51.012;-1.648;2023-09-19T06:01:18;21.15;;;19.40;;
52692;SDS011;68218;51.012;-1.648;2023-09-19T06:03:44;18.35;;;17.05;;
52692;SDS011;68218;51.012;-1.648;2023-09-19T06:06:09;15.38;;;14.07;;
52692;SDS011;68218;51.012;-1.648;2023-09-19T06:08:35;14.68;;;13.43;;
52692;SDS011;68218;51.012;-1.648;2023-09-19T06:11:00;15.90;;;14.07;;
52692;SDS011;68218;51.012;-1.648;2023-09-19T06:13:28;16.55;;;15.25;;
52692;SDS011;68218;51.012;-1.648;2023-09-19T06:15:54;21.55;;;19.88;;
52692;SDS011;68218;51.012;-1.648;2023-09-19T06:18:21;16.17;;;14.95;;
52692;SDS011;68218;51.012;-1.648;2023-09-19T06:20:50;19.98;;;18.05;;
52692;SDS011;68218;51.012;-1.648;2023-09-19T06:23:16;14.50;;;13.40;;
52692;SDS011;68218;51.012;-1.648;2023-09-19T06:25:43;20.52;;;18.38;;
52692;SDS011;68218;51.012;-1.648;2023-09-19T06:28:08;16.13;;;14.63;;
52692;SDS011;68218;51.012;-1.648;2023-09-19T06:30:37;15.75;;;14.50;;
52692;SDS011;68218;51.012;-1.648;2023-09-19T06:33:05;22.95;;;14.43;;
52692;SDS011;68218;51.012;-1.648;2023-09-19T06:35:32;15.85;;;13.70;;
52692;SDS011;68218;51.012;-1.648;2023-09-19T06:37:58;25.92;;;14.65;;
52692;SDS011;68218;51.012;-1.648;2023-09-19T06:40:24;15.00;;;13.65;;
52692;SDS011;68218;51.012;-1.648;2023-09-19T06:42:52;19.13;;;17.33;;
52692;SDS011;68218;51.012;-1.648;2023-09-19T06:45:19;16.65;;;15.30;;
52692;SDS011;68218;51.012;-1.648;2023-09-19T06:47:46;16.20;;;14.90;;
52692;SDS011;68218;51.012;-1.648;2023-09-19T06:50:20;18.83;;;14.77;;
52692;SDS011;68218;51.012;-1.648;2023-09-19T06:52:47;20.55;;;18.83;;
52692;SDS011;68218;51.012;-1.648;2023-09-19T06:55:15;16.67;;;15.27;;
52692;SDS011;68218;51.012;-1.648;2023-09-19T06:57:44;21.50;;;16.30;;
52692;SDS011;68218;51.012;-1.648;2023-09-19T07:00:10;17.67;;;16.05;;
52692;SDS011;68218;51.012;-1.648;2023-09-19T07:02:43;18.67;;;16.83;;
52692;SDS011;68218;51.012;-1.648;2023-09-19T07:05:09;20.02;;;16.08;;
52692;SDS011;68218;51.012;-1.648;2023-09-19T07:07:35;20.88;;;18.77;;
52692;SDS011;68218;51.012;-1.648;2023-09-19T07:10:01;22.88;;;20.58;;
52692;SDS011;68218;51.012;-1.648;2023-09-19T07:12:27;20.40;;;16.20;;
52692;SDS011;68218;51.012;-1.648;2023-09-19T07:14:52;19.05;;;17.25;;
52692;SDS011;68218;51.012;-1.648;2023-09-19T07:17:18;19.55;;;17.40;;
52692;SDS011;68218;51.012;-1.648;2023-09-19T07:19:44;19.88;;;16.75;;
52692;SDS011;68218;51.012;-1.648;2023-09-19T07:22:10;23.73;;;17.58;;
52692;SDS011;68218;51.012;-1.648;2023-09-19T07:24:35;22.75;;;17.50;;
52692;SDS011;68218;51.012;-1.648;2023-09-19T07:27:01;24.45;;;20.90;;
52692;SDS011;68218;51.012;-1.648;2023-09-19T07:29:27;19.60;;;16.77;;
52692;SDS011;68218;51.012;-1.648;2023-09-19T07:31:53;22.08;;;20.27;;
52692;SDS011;68218;51.012;-1.648;2023-09-19T07:34:19;19.52;;;16.40;;
52692;SDS011;68218;51.012;-1.648;2023-09-19T07:36:46;21.65;;;17.33;;
52692;SDS011;68218;51.012;-1.648;2023-09-19T07:39:12;26.25;;;21.40;;
52692;SDS011;68218;51.012;-1.648;2023-09-19T07:41:38;26.08;;;16.77;;
52692;SDS011;68218;51.012;-1.648;2023-09-19T07:44:04;19.75;;;16.40;;
52692;SDS011;68218;51.012;-1.648;2023-09-19T07:46:29;20.88;;;17.52;;
52692;SDS011;68218;51.012;-1.648;2023-09-19T07:48:56;20.90;;;18.67;;
52692;SDS011;68218;51.012;-1.648;2023-09-19T07:51:22;19.73;;;17.85;;
52692;SDS011;68218;51.012;-1.648;2023-09-19T07:53:48;18.67;;;16.85;;
52692;SDS011;68218;51.012;-1.648;2023-09-19T07:56:13;21.65;;;18.23;;
52692;SDS011;68218;51.012;-1.648;2023-09-19T07:58:39;19.05;;;17.20;;
52692;SDS011;68218;51.012;-1.648;2023-09-19T08:01:09;18.30;;;16.63;;
52692;SDS011;68218;51.012;-1.648;2023-09-19T08:03:35;23.00;;;18.05;;
52692;SDS011;68218;51.012;-1.648;2023-09-19T08:06:05;19.27;;;17.58;;
52692;SDS011;68218;51.012;-1.648;2023-09-19T08:08:32;20.42;;;16.60;;
52692;SDS011;68218;51.012;-1.648;2023-09-19T08:10:57;18.77;;;17.13;;
52692;SDS011;68218;51.012;-1.648;2023-09-19T08:13:23;21.83;;;19.80;;
52692;SDS011;68218;51.012;-1.648;2023-09-19T08:15:49;18.88;;;17.27;;
52692;SDS011;68218;51.012;-1.648;2023-09-19T08:18:16;21.95;;;18.00;;
52692;SDS011;68218;51.012;-1.648;2023-09-19T08:20:42;22.95;;;16.45;;
52692;SDS011;68218;51.012;-1.648;2023-09-19T08:23:08;18.02;;;16.10;;
52692;SDS011;68218;51.012;-1.648;2023-09-19T08:25:33;35.35;;;16.25;;
52692;SDS011;68218;51.012;-1.648;2023-09-19T08:27:59;30.55;;;21.20;;
52692;SDS011;68218;51.012;-1.648;2023-09-19T08:30:28;18.98;;;16.20;;
52692;SDS011;68218;51.012;-1.648;2023-09-19T08:32:58;21.20;;;19.08;;
52692;SDS011;68218;51.012;-1.648;2023-09-19T08:35:24;21.80;;;19.80;;
52692;SDS011;68218;51.012;-1.648;2023-09-19T08:37:50;23.02;;;20.92;;
52692;SDS011;68218;51.012;-1.648;2023-09-19T08:40:16;18.65;;;16.50;;
52692;SDS011;68218;51.012;-1.648;2023-09-19T08:45:19;41.17;;;22.73;;
52692;SDS011;68218;51.012;-1.648;2023-09-19T08:47:50;23.08;;;20.38;;
52692;SDS011;68218;51.012;-1.648;2023-09-19T08:50:29;31.73;;;21.08;;
52692;SDS011;68218;51.012;-1.648;2023-09-19T08:52:56;19.70;;;17.77;;
52692;SDS011;68218;51.012;-1.648;2023-09-19T08:55:28;32.60;;;21.83;;
52692;SDS011;68218;51.012;-1.648;2023-09-19T08:58:01;25.95;;;19.67;;
52692;SDS011;68218;51.012;-1.648;2023-09-19T09:00:29;20.25;;;18.27;;
52692;SDS011;68218;51.012;-1.648;2023-09-19T09:02:56;25.88;;;18.77;;
52692;SDS011;68218;51.012;-1.648;2023-09-19T09:05:23;21.67;;;19.75;;
52692;SDS011;68218;51.012;-1.648;2023-09-19T09:07:49;21.05;;;18.40;;
52692;SDS011;68218;51.012;-1.648;2023-09-19T09:10:21;22.33;;;19.73;;
52692;SDS011;68218;51.012;-1.648;2023-09-19T09:12:50;21.80;;;19.67;;
52692;SDS011;68218;51.012;-1.648;2023-09-19T09:15:18;25.40;;;23.10;;
52692;SDS011;68218;51.012;-1.648;2023-09-19T09:17:49;26.00;;;23.00;;
52692;SDS011;68218;51.012;-1.648;2023-09-19T09:20:16;29.45;;;22.85;;
52692;SDS011;68218;51.012;-1.648;2023-09-19T09:22:53;19.80;;;18.00;;
52692;SDS011;68218;51.012;-1.648;2023-09-19T09:25:19;27.50;;;22.75;;
52692;SDS011;68218;51.012;-1.648;2023-09-19T09:28:10;26.23;;;18.90;;
52692;SDS011;68218;51.012;-1.648;2023-09-19T09:30:35;21.05;;;19.08;;
52692;SDS011;68218;51.012;-1.648;2023-09-19T09:33:09;23.25;;;18.52;;
52692;SDS011;68218;51.012;-1.648;2023-09-19T09:35:36;24.60;;;19.65;;
52692;SDS011;68218;51.012;-1.648;2023-09-19T09:38:43;20.55;;;18.35;;
52692;SDS011;68218;51.012;-1.648;2023-09-19T09:41:11;22.58;;;18.45;;
52692;SDS011;68218;51.012;-1.648;2023-09-19T09:43:41;36.10;;;19.50;;
52692;SDS011;68218;51.012;-1.648;2023-09-19T09:48:47;31.65;;;22.33;;
52692;SDS011;68218;51.012;-1.648;2023-09-19T09:51:36;20.80;;;18.63;;
52692;SDS011;68218;51.012;-1.648;2023-09-19T09:54:10;21.30;;;19.40;;
52692;SDS011;68218;51.012;-1.648;2023-09-19T09:56:53;18.40;;;16.75;;
52692;SDS011;68218;51.012;-1.648;2023-09-19T09:59:22;26.58;;;22.90;;
52692;SDS011;68218;51.012;-1.648;2023-09-19T10:01:49;25.33;;;23.13;;
52692;SDS011;68218;51.012;-1.648;2023-09-19T10:05:43;27.73;;;21.35;;
52692;SDS011;68218;51.012;-1.648;2023-09-19T10:08:10;22.98;;;20.15;;
52692;SDS011;68218;51.012;-1.648;2023-09-19T10:10:38;33.63;;;19.73;;
52692;SDS011;68218;51.012;-1.648;2023-09-19T10:13:19;27.48;;;21.30;;
52692;SDS011;68218;51.012;-1.648;2023-09-19T10:15:48;24.48;;;19.83;;
52692;SDS011;68218;51.012;-1.648;2023-09-19T10:18:25;23.33;;;20.33;;
52692;SDS011;68218;51.012;-1.648;2023-09-19T10:20:53;22.40;;;20.05;;
52692;SDS011;68218;51.012;-1.648;2023-09-19T10:23:20;20.15;;;18.02;;
52692;SDS011;68218;51.012;-1.648;2023-09-19T10:25:51;18.67;;;17.05;;
52692;SDS011;68218;51.012;-1.648;2023-09-19T10:28:17;19.88;;;18.17;;
52692;SDS011;68218;51.012;-1.648;2023-09-19T10:30:48;26.77;;;19.67;;
52692;SDS011;68218;51.012;-1.648;2023-09-19T10:33:18;21.50;;;18.63;;
52692;SDS011;68218;51.012;-1.648;2023-09-19T10:35:47;20.25;;;18.20;;
52692;SDS011;68218;51.012;-1.648;2023-09-19T10:38:14;23.38;;;18.33;;
52692;SDS011;68218;51.012;-1.648;2023-09-19T10:40:48;19.50;;;17.65;;
52692;SDS011;68218;51.012;-1.648;2023-09-19T10:43:16;18.63;;;16.95;;
52692;SDS011;68218;51.012;-1.648;2023-09-19T10:45:46;18.25;;;16.60;;
52692;SDS011;68218;51.012;-1.648;2023-09-19T10:48:17;20.45;;;18.20;;
52692;SDS011;68218;51.012;-1.648;2023-09-19T10:53:24;19.00;;;17.17;;
52692;SDS011;68218;51.012;-1.648;2023-09-19T10:55:54;19.75;;;17.90;;
52692;SDS011;68218;51.012;-1.648;2023-09-19T10:58:25;19.70;;;17.63;;
52692;SDS011;68218;51.012;-1.648;2023-09-19T11:00:59;17.48;;;15.98;;
52692;SDS011;68218;51.012;-1.648;2023-09-19T11:03:31;19.10;;;17.50;;
52692;SDS011;68218;51.012;-1.648;2023-09-19T11:06:09;18.05;;;16.15;;
52692;SDS011;68218;51.012;-1.648;2023-09-19T11:36:04;21.17;;;19.00;;
52692;SDS011;68218;51.012;-1.648;2023-09-19T11:43:52;19.92;;;18.05;;
52692;SDS011;68218;51.012;-1.648;2023-09-19T11:49:17;18.85;;;17.15;;
52692;SDS011;68218;51.012;-1.648;2023-09-19T11:54:16;18.15;;;16.00;;
52692;SDS011;68218;51.012;-1.648;2023-09-19T11:56:53;20.83;;;17.70;;
52692;SDS011;68218;51.012;-1.648;2023-09-19T11:59:20;18.55;;;16.80;;
52692;SDS011;68218;51.012;-1.648;2023-09-19T12:01:54;19.67;;;18.05;;
52692;SDS011;68218;51.012;-1.648;2023-09-19T12:04:42;18.35;;;16.65;;
52692;SDS011;68218;51.012;-1.648;2023-09-19T12:07:11;20.17;;;18.48;;
52692;SDS011;68218;51.012;-1.648;2023-09-19T12:09:41;18.65;;;17.08;;
52692;SDS011;68218;51.012;-1.648;2023-09-19T12:12:09;19.25;;;17.55;;
52692;SDS011;68218;51.012;-1.648;2023-09-19T12:14:47;21.05;;;18.85;;
52692;SDS011;68218;51.012;-1.648;2023-09-19T12:17:13;30.88;;;18.73;;
52692;SDS011;68218;51.012;-1.648;2023-09-19T12:19:39;19.88;;;18.17;;
52692;SDS011;68218;51.012;-1.648;2023-09-19T12:22:15;19.77;;;18.02;;
52692;SDS011;68218;51.012;-1.648;2023-09-19T12:24:41;19.30;;;17.67;;
52692;SDS011;68218;51.012;-1.648;2023-09-19T12:27:09;22.60;;;18.23;;
52692;SDS011;68218;51.012;-1.648;2023-09-19T12:32:09;20.55;;;18.50;;
52692;SDS011;68218;51.012;-1.648;2023-09-19T12:34:35;20.85;;;18.83;;
52692;SDS011;68218;51.012;-1.648;2023-09-19T12:37:13;19.80;;;18.10;;
52692;SDS011;68218;51.012;-1.648;2023-09-19T12:40:06;19.52;;;17.73;;
52692;SDS011;68218;51.012;-1.648;2023-09-19T12:42:45;23.20;;;19.88;;
52692;SDS011;68218;51.012;-1.648;2023-09-19T12:45:11;20.20;;;18.40;;
52692;SDS011;68218;51.012;-1.648;2023-09-19T12:47:38;20.90;;;18.73;;
52692;SDS011;68218;51.012;-1.648;2023-09-19T12:52:47;22.45;;;17.70;;
52692;SDS011;68218;51.012;-1.648;2023-09-19T12:55:20;20.40;;;18.08;;
52692;SDS011;68218;51.012;-1.648;2023-09-19T13:00:46;20.80;;;18.60;;
52692;SDS011;68218;51.012;-1.648;2023-09-19T13:03:32;20.77;;;18.00;;
52692;SDS011;68218;51.012;-1.648;2023-09-19T13:06:00;19.80;;;18.00;;
52692;SDS011;68218;51.012;-1.648;2023-09-19T13:08:30;29.25;;;18.67;;
52692;SDS011;68218;51.012;-1.648;2023-09-19T13:11:12;18.50;;;16.63;;
52692;SDS011;68218;51.012;-1.648;2023-09-19T13:13:46;20.02;;;17.80;;
52692;SDS011;68218;51.012;-1.648;2023-09-19T13:16:20;21.77;;;19.52;;
52692;SDS011;68218;51.012;-1.648;2023-09-19T13:18:53;22.48;;;18.25;;
52692;SDS011;68218;51.012;-1.648;2023-09-19T13:21:31;19.48;;;17.73;;
52692;SDS011;68218;51.012;-1.648;2023-09-19T13:24:21;19.77;;;17.98;;
52692;SDS011;68218;51.012;-1.648;2023-09-19T13:26:50;19.77;;;17.88;;
52692;SDS011;68218;51.012;-1.648;2023-09-19T13:29:16;27.88;;;18.90;;
52692;SDS011;68218;51.012;-1.648;2023-09-19T13:31:50;32.65;;;19.85;;
52692;SDS011;68218;51.012;-1.648;2023-09-19T13:34:18;21.05;;;18.90;;
52692;SDS011;68218;51.012;-1.648;2023-09-19T13:36:45;27.17;;;18.20;;
52692;SDS011;68218;51.012;-1.648;2023-09-19T13:39:13;19.95;;;17.90;;
52692;SDS011;68218;51.012;-1.648;2023-09-19T13:41:40;19.77;;;18.08;;
52692;SDS011;68218;51.012;-1.648;2023-09-19T13:44:07;20.67;;;18.23;;
52692;SDS011;68218;51.012;-1.648;2023-09-19T13:46:33;20.02;;;17.98;;
52692;SDS011;68218;51.012;-1.648;2023-09-19T13:49:00;22.33;;;19.27;;
52692;SDS011;68218;51.012;-1.648;2023-09-19T13:51:28;21.95;;;20.08;;
52692;SDS011;68218;51.012;-1.648;2023-09-19T13:53:55;27.17;;;19.30;;
52692;SDS011;68218;51.012;-1.648;2023-09-19T13:56:20;19.70;;;17.88;;
52692;SDS011;68218;51.012;-1.648;2023-09-19T13:58:46;20.13;;;18.23;;
52692;SDS011;68218;51.012;-1.648;2023-09-19T14:01:12;23.35;;;19.67;;
52692;SDS011;68218;51.012;-1.648;2023-09-19T14:03:41;22.88;;;18.67;;
52692;SDS011;68218;51.012;-1.648;2023-09-19T14:06:16;20.42;;;18.65;;
52692;SDS011;68218;51.012;-1.648;2023-09-19T14:08:43;20.83;;;19.00;;
52692;SDS011;68218;51.012;-1.648;2023-09-19T14:11:13;24.73;;;19.55;;
52692;SDS011;68218;51.012;-1.648;2023-09-19T14:13:39;37.85;;;20.73;;
52692;SDS011;68218;51.012;-1.648;2023-09-19T14:16:05;21.02;;;18.58;;
52692;SDS011;68218;51.012;-1.648;2023-09-19T14:18:33;18.40;;;16.75;;
52692;SDS011;68218;51.012;-1.648;2023-09-19T14:21:02;21.08;;;17.90;;
52692;SDS011;68218;51.012;-1.648;2023-09-19T14:23:28;19.70;;;17.77;;
52692;SDS011;68218;51.012;-1.648;2023-09-19T14:25:54;27.83;;;18.23;;
52692;SDS011;68218;51.012;-1.648;2023-09-19T14:28:19;22.73;;;19.13;;
52692;SDS011;68218;51.012;-1.648;2023-09-19T14:30:44;21.17;;;18.23;;
52692;SDS011;68218;51.012;-1.648;2023-09-19T14:33:11;31.33;;;19.17;;
52692;SDS011;68218;51.012;-1.648;2023-09-19T14:35:36;22.00;;;20.00;;
52692;SDS011;68218;51.012;-1.648;2023-09-19T14:38:03;19.80;;;17.65;;
52692;SDS011;68218;51.012;-1.648;2023-09-19T14:40:28;20.25;;;18.38;;
52692;SDS011;68218;51.012;-1.648;2023-09-19T14:42:54;24.63;;;17.98;;
52692;SDS011;68218;51.012;-1.648;2023-09-19T14:45:20;21.52;;;17.98;;
52692;SDS011;68218;51.012;-1.648;2023-09-19T14:47:46;25.83;;;17.70;;
52692;SDS011;68218;51.012;-1.648;2023-09-19T14:50:11;20.02;;;17.85;;
52692;SDS011;68218;51.012;-1.648;2023-09-19T14:52:37;18.55;;;16.63;;
52692;SDS011;68218;51.012;-1.648;2023-09-19T14:55:04;21.60;;;16.92;;
52692;SDS011;68218;51.012;-1.648;2023-09-19T14:57:31;19.77;;;16.50;;
52692;SDS011;68218;51.012;-1.648;2023-09-19T14:59:57;20.00;;;15.57;;
52692;SDS011;68218;51.012;-1.648;2023-09-19T15:02:23;20.20;;;15.05;;
52692;SDS011;68218;51.012;-1.648;2023-09-19T15:04:48;14.88;;;13.57;;
52692;SDS011;68218;51.012;-1.648;2023-09-19T15:07:15;17.80;;;15.63;;
52692;SDS011;68218;51.012;-1.648;2023-09-19T15:09:41;18.35;;;16.40;;
52692;SDS011;68218;51.012;-1.648;2023-09-19T15:12:07;22.33;;;15.70;;
52692;SDS011;68218;51.012;-1.648;2023-09-19T15:14:32;16.17;;;13.85;;
52692;SDS011;68218;51.012;-1.648;2023-09-19T15:16:58;16.67;;;15.07;;
52692;SDS011;68218;51.012;-1.648;2023-09-19T15:19:23;14.45;;;13.25;;
52692;SDS011;68218;51.012;-1.648;2023-09-19T15:21:49;31.98;;;14.45;;
52692;SDS011;68218;51.012;-1.648;2023-09-19T15:24:14;15.07;;;13.65;;